sensor_id;sensor_type;location;lat;lon;timestamp;temperature;humidity
78184;DHT22;67442;44.570;18.610;2023-03-15T21:49:21;21.20;62.60
78184;DHT22;67442;44.570;18.610;2023-03-15T21:51:48;21.10;63.70
78184;DHT22;67442;44.570;18.610;2023-03-15T21:54:15;21.10;64.20
78184;DHT22;67442;44.570;18.610;2023-03-15T21:56:42;21.10;64.50
78184;DHT22;67442;44.570;18.610;2023-03-15T21:59:09;21.20;64.60
78184;DHT22;67442;44.570;18.610;2023-03-15T22:01:37;21.30;64.70
78184;DHT22;67442;44.570;18.610;2023-03-15T22:04:05;21.30;64.40
78184;DHT22;67442;44.570;18.610;2023-03-15T22:06:32;21.40;64.40
78184;DHT22;67442;44.570;18.610;2023-03-15T22:09:03;21.50;64.10
78184;DHT22;67442;44.570;18.610;2023-03-15T22:11:30;21.50;63.80
78184;DHT22;67442;44.570;18.610;2023-03-15T22:13:57;21.60;63.70
78184;DHT22;67442;44.570;18.610;2023-03-15T22:16:25;21.60;63.40
78184;DHT22;67442;44.570;18.610;2023-03-15T22:18:52;21.70;63.30
78184;DHT22;67442;44.570;18.610;2023-03-15T22:21:19;21.70;63.00
78184;DHT22;67442;44.570;18.610;2023-03-15T22:23:46;21.80;62.90
78184;DHT22;67442;44.570;18.610;2023-03-15T22:26:13;21.80;62.70
78184;DHT22;67442;44.570;18.610;2023-03-15T22:28:41;21.80;62.50
78184;DHT22;67442;44.570;18.610;2023-03-15T22:31:09;21.80;62.30
78184;DHT22;67442;44.570;18.610;2023-03-15T22:33:36;21.90;62.30
78184;DHT22;67442;44.570;18.610;2023-03-15T22:36:03;21.90;62.00
78184;DHT22;67442;44.570;18.610;2023-03-15T22:38:32;21.90;61.90
78184;DHT22;67442;44.570;18.610;2023-03-15T22:41:07;21.90;61.70
78184;DHT22;67442;44.570;18.610;2023-03-15T22:43:35;21.90;61.50
78184;DHT22;67442;44.570;18.610;2023-03-15T22:46:03;22.00;61.40
78184;DHT22;67442;44.570;18.610;2023-03-15T22:48:31;22.00;61.30
78184;DHT22;67442;44.570;18.610;2023-03-15T22:51:03;22.00;61.20
78184;DHT22;67442;44.570;18.610;2023-03-15T22:53:33;22.00;61.10
78184;DHT22;67442;44.570;18.610;2023-03-15T22:55:59;22.00;61.00
78184;DHT22;67442;44.570;18.610;2023-03-15T22:58:26;22.00;60.80
78184;DHT22;67442;44.570;18.610;2023-03-15T23:00:57;22.00;61.50
78184;DHT22;67442;44.570;18.610;2023-03-15T23:03:25;22.00;60.70
78184;DHT22;67442;44.570;18.610;2023-03-15T23:05:52;22.00;60.60
78184;DHT22;67442;44.570;18.610;2023-03-15T23:08:19;22.00;60.60
78184;DHT22;67442;44.570;18.610;2023-03-15T23:10:51;22.00;61.40
78184;DHT22;67442;44.570;18.610;2023-03-15T23:13:22;22.00;60.50
78184;DHT22;67442;44.570;18.610;2023-03-15T23:15:48;22.00;60.50
78184;DHT22;67442;44.570;18.610;2023-03-15T23:18:16;22.00;60.40
78184;DHT22;67442;44.570;18.610;2023-03-15T23:20:43;22.10;60.60
78184;DHT22;67442;44.570;18.610;2023-03-15T23:23:10;22.00;60.40
78184;DHT22;67442;44.570;18.610;2023-03-15T23:25:38;22.00;60.40
78184;DHT22;67442;44.570;18.610;2023-03-15T23:28:05;22.10;60.40
78184;DHT22;67442;44.570;18.610;2023-03-15T23:30:36;22.00;60.30
78184;DHT22;67442;44.570;18.610;2023-03-15T23:33:05;22.00;60.30
78184;DHT22;67442;44.570;18.610;2023-03-15T23:35:36;22.00;60.30
78184;DHT22;67442;44.570;18.610;2023-03-15T23:38:03;22.10;60.30
78184;DHT22;67442;44.570;18.610;2023-03-15T23:40:31;22.10;60.30
78184;DHT22;67442;44.570;18.610;2023-03-15T23:42:58;22.00;60.20
78184;DHT22;67442;44.570;18.610;2023-03-15T23:45:26;22.10;60.20
78184;DHT22;67442;44.570;18.610;2023-03-15T23:47:54;22.10;60.20
78184;DHT22;67442;44.570;18.610;2023-03-15T23:50:22;22.10;60.20
78184;DHT22;67442;44.570;18.610;2023-03-15T23:52:55;22.10;60.20
78184;DHT22;67442;44.570;18.610;2023-03-15T23:55:22;22.00;60.10
78184;DHT22;67442;44.570;18.610;2023-03-15T23:57:49;22.10;60.20
